Portada
METAR-TAF:

METAR-TAF

Aeropuertos :

Aeropuerto Internacional de Sarajevo

Sarajevo, Bosnia y Herzegovina

latitud: 43-49N, longitud: 018-20E, altitud: 511 m

Observación

El informe se hizo hace 23 minutos, a las 07:00 UTC
Viento 1 kt con dirección variable
Temperatura 1°C
Humedad 75%
Presión 1021 hPa
Visibilidad 10 km o más
sin nubes por debajo de 1500 m y sin presencia de cumulonimbus.

METAR: LQSA 160700Z VRB01KT CAVOK 01/M03 Q1021 NOSIG

Hora: 09:23 (07:23 UTC)

Pronóstico

El informe se hizo hace 1 hora y 25 minutos, a las 05:58 UTC
Pronóstico válido del 16 a las 06 UTC al 17 a las 06 UTC
Viento 2 kt con dirección variable
Visibilidad 10 km o más
sin nubes por debajo de 1500 m y sin presencia de cumulonimbus.
Probabilidad 30% :
Temporalmente
del 16 a las 11 UTC al 16 a las 16 UTC
Viento 10 kt del norte-noroeste

TAF: LQSA 160558Z 1606/1706 VRB02KT CAVOK TX14/1613Z TNM01/1606Z PROB30 TEMPO 1611/1616 34010KT

Observaciones y pronósticos meteorológicos de más de 4000 aeropuertos (mensajes METAR y TAF).

Los puntos amarillos y rojos representan las estaciones disponibles.

Ponga el ratón en el punto deseado para ver el nombre de la estación.

Haga clic para ver las observaciones y los pronósticos meteorológicos.

Para cambiar el mapa : haga clic en los botones verdes con una cruz de color negro para hacer un zoom, en el botón verde con un guión para alejar o en las flechas verdes para mapas adyacentes.


METAR-TAF: